Time;durP1;ratioP1;P1;durP2;ratioP2;P2;SDS_P1;SDS_P2;PMS_P1;PMS_P2;Temp;Humidity;BMP_temperature;BMP_pressure;BME280_temperature;BME280_humidity;BME280_pressure;Samples;Min_cycle;Max_cycle;Signal;HPM_P1;HPM_P2
2022/06/30 00:00:16;;;;;;;1.47;1.37;;;18.80;99.90;;;;;;5075450;28;20712;-70
2022/06/30 00:02:42;;;;;;;1.50;1.17;;;18.80;99.90;;;;;;5075313;28;20492;-71
2022/06/30 00:05:08;;;;;;;1.53;1.43;;;18.70;99.90;;;;;;5075091;28;20166;-70
2022/06/30 00:07:33;;;;;;;1.60;1.07;;;18.70;99.90;;;;;;5075438;28;20218;-71
2022/06/30 00:09:59;;;;;;;1.70;1.10;;;18.70;99.90;;;;;;5075148;28;20684;-71
2022/06/30 00:12:25;;;;;;;1.80;1.30;;;18.60;99.90;;;;;;5075459;28;20223;-71
2022/06/30 00:14:51;;;;;;;1.47;1.33;;;18.60;99.90;;;;;;5074803;28;20184;-71
2022/06/30 00:17:17;;;;;;;2.47;1.80;;;18.60;99.90;;;;;;5074941;28;20452;-71
2022/06/30 00:19:45;;;;;;;2.40;1.43;;;18.50;99.90;;;;;;5075019;28;20251;-70
2022/06/30 00:22:11;;;;;;;1.30;1.20;;;18.50;99.90;;;;;;5075160;28;20169;-71
2022/06/30 00:24:37;;;;;;;1.20;0.90;;;18.50;99.90;;;;;;5074696;28;20430;-71
2022/06/30 00:27:04;;;;;;;1.40;1.10;;;18.40;99.90;;;;;;5075109;28;20396;-70
2022/06/30 00:29:29;;;;;;;1.50;1.03;;;18.40;99.90;;;;;;5074898;28;20522;-72
2022/06/30 00:31:55;;;;;;;1.63;1.47;;;18.40;99.90;;;;;;5075030;28;20514;-73
2022/06/30 00:34:20;;;;;;;1.17;1.00;;;18.30;99.90;;;;;;5074875;28;20540;-72
2022/06/30 00:36:46;;;;;;;1.43;1.30;;;18.30;99.90;;;;;;5074861;28;20226;-72
2022/06/30 00:39:12;;;;;;;1.30;1.20;;;18.30;99.90;;;;;;5074633;28;20178;-74
2022/06/30 00:41:42;;;;;;;1.80;1.43;;;18.20;99.90;;;;;;5074981;28;20166;-71
2022/06/30 00:44:10;;;;;;;2.30;1.63;;;18.20;99.90;;;;;;5074712;28;20392;-72
2022/06/30 00:46:35;;;;;;;1.53;1.43;;;18.10;99.90;;;;;;5074557;28;20401;-70
2022/06/30 00:49:01;;;;;;;1.60;1.50;;;18.10;99.90;;;;;;5074504;28;20447;-69
2022/06/30 00:51:27;;;;;;;1.90;1.53;;;18.10;99.90;;;;;;5074582;28;20219;-70
2022/06/30 00:53:55;;;;;;;1.80;1.30;;;18.10;99.90;;;;;;5074384;28;20526;-71
2022/06/30 00:56:21;;;;;;;2.50;1.80;;;18.00;99.90;;;;;;5074010;28;20672;-70
2022/06/30 00:58:48;;;;;;;2.43;1.57;;;18.00;99.90;;;;;;5074098;28;20431;-70
2022/06/30 01:01:17;;;;;;;2.53;2.10;;;18.00;99.90;;;;;;5074345;28;20401;-70
2022/06/30 01:03:43;;;;;;;2.67;2.40;;;17.90;99.90;;;;;;5074339;28;20392;-71
2022/06/30 01:06:10;;;;;;;2.93;2.50;;;17.90;99.90;;;;;;5073913;28;20397;-69
2022/06/30 01:08:36;;;;;;;2.90;2.60;;;17.90;99.90;;;;;;5073196;28;20806;-70
2022/06/30 01:13:48;;;;;;;2.47;2.17;;;17.90;99.90;;;;;;5074173;28;20391;-70
2022/06/30 01:16:14;;;;;;;4.47;2.40;;;17.90;99.90;;;;;;5072402;28;20413;-70
2022/06/30 01:18:40;;;;;;;3.03;2.37;;;17.90;99.90;;;;;;5073997;28;20833;-70
2022/06/30 01:21:05;;;;;;;2.57;2.37;;;17.80;99.90;;;;;;5074146;28;20426;-71
2022/06/30 01:23:31;;;;;;;4.97;3.50;;;17.80;99.90;;;;;;5073288;28;20171;-73
2022/06/30 01:25:57;;;;;;;4.13;3.83;;;17.80;99.90;;;;;;5072768;28;20167;-72
2022/06/30 01:28:22;;;;;;;2.57;2.37;;;17.80;99.90;;;;;;5074416;28;20186;-72
2022/06/30 01:30:48;;;;;;;3.87;2.90;;;17.80;99.90;;;;;;5073187;28;20178;-69
2022/06/30 01:33:14;;;;;;;4.00;2.50;;;17.80;99.90;;;;;;5073671;28;20227;-70
2022/06/30 01:35:39;;;;;;;3.93;3.10;;;17.90;99.90;;;;;;5073484;28;20167;-71
2022/06/30 01:38:05;;;;;;;4.40;2.40;;;17.90;99.90;;;;;;5073491;28;20642;-71
2022/06/30 01:40:33;;;;;;;3.40;3.10;;;17.90;99.90;;;;;;5073721;28;20558;-68
2022/06/30 01:42:59;;;;;;;3.40;3.10;;;17.90;99.90;;;;;;5073524;28;20818;-69
2022/06/30 01:45:25;;;;;;;3.57;3.27;;;18.00;99.90;;;;;;5073199;28;20511;-69
2022/06/30 01:47:52;;;;;;;3.57;2.37;;;18.00;99.90;;;;;;5073380;28;20511;-69
2022/06/30 01:50:21;;;;;;;2.57;2.30;;;18.00;99.90;;;;;;5073507;28;20413;-69
2022/06/30 01:52:47;;;;;;;2.10;1.93;;;18.00;99.90;;;;;;5073269;28;20405;-69
2022/06/30 01:55:13;;;;;;;2.77;2.47;;;18.10;99.90;;;;;;5073055;28;20428;-69
2022/06/30 01:57:39;;;;;;;2.90;2.70;;;18.00;99.90;;;;;;5073239;28;20492;-70
2022/06/30 02:00:10;;;;;;;3.63;2.50;;;18.00;99.90;;;;;;5073235;28;20212;-70
2022/06/30 02:02:36;;;;;;;3.00;2.57;;;18.00;99.90;;;;;;5073221;28;20403;-68
2022/06/30 02:05:02;;;;;;;2.70;2.00;;;18.10;99.90;;;;;;5071562;28;20447;-68
2022/06/30 02:07:28;;;;;;;2.73;2.33;;;18.00;99.90;;;;;;5072993;28;20432;-70
2022/06/30 02:09:53;;;;;;;2.50;2.30;;;18.00;99.90;;;;;;5072822;28;20415;-71
2022/06/30 02:15:05;;;;;;;3.37;2.60;;;18.00;99.90;;;;;;5072745;28;20205;-70
2022/06/30 02:17:31;;;;;;;2.77;2.30;;;18.00;99.90;;;;;;5072825;28;20627;-70
2022/06/30 02:19:57;;;;;;;2.33;2.13;;;18.00;99.90;;;;;;5072639;28;20498;-70
2022/06/30 02:22:22;;;;;;;2.50;2.30;;;18.00;99.90;;;;;;5071446;28;20202;-69
2022/06/30 02:24:48;;;;;;;2.33;2.10;;;18.00;99.90;;;;;;5072418;28;20162;-70
2022/06/30 02:27:13;;;;;;;2.80;2.10;;;18.00;99.90;;;;;;5071333;28;20174;-71
2022/06/30 02:29:39;;;;;;;1.80;1.70;;;18.00;99.90;;;;;;5072621;28;20201;-71
2022/06/30 02:32:05;;;;;;;1.83;1.73;;;17.90;99.90;;;;;;5072616;28;20178;-70
2022/06/30 02:34:30;;;;;;;2.07;1.87;;;17.90;99.90;;;;;;5072277;28;20171;-69
2022/06/30 02:36:56;;;;;;;2.23;1.70;;;17.90;99.90;;;;;;5072426;28;20509;-69
2022/06/30 02:39:22;;;;;;;1.67;1.43;;;17.90;99.90;;;;;;5072314;28;20182;-71
2022/06/30 02:41:47;;;;;;;2.87;1.87;;;17.90;99.90;;;;;;5072441;28;20245;-71
2022/06/30 02:44:13;;;;;;;2.10;1.50;;;17.80;99.90;;;;;;5072221;28;20700;-69
2022/06/30 02:46:39;;;;;;;1.90;1.53;;;17.80;99.90;;;;;;5072282;28;20543;-71
2022/06/30 02:49:05;;;;;;;1.23;1.13;;;17.80;99.90;;;;;;5072203;28;20272;-71
2022/06/30 02:51:30;;;;;;;1.90;1.60;;;17.80;99.90;;;;;;5072307;28;20651;-70
2022/06/30 02:53:56;;;;;;;2.00;1.13;;;17.70;99.90;;;;;;5072047;28;20284;-70
2022/06/30 02:56:22;;;;;;;2.43;1.10;;;17.70;99.90;;;;;;5071964;28;20204;-70
2022/06/30 02:58:48;;;;;;;2.23;1.57;;;17.70;99.90;;;;;;5072030;28;20482;-70
2022/06/30 03:01:15;;;;;;;1.37;1.27;;;17.70;99.90;;;;;;5072318;28;20162;-71
2022/06/30 03:03:40;;;;;;;3.37;2.10;;;17.70;99.90;;;;;;5072064;28;20413;-71
2022/06/30 03:06:06;;;;;;;3.53;2.60;;;17.70;99.90;;;;;;5071776;28;20937;-68
2022/06/30 03:08:32;;;;;;;3.40;2.43;;;17.70;99.90;;;;;;5072071;28;20194;-68
2022/06/30 03:10:58;;;;;;;2.30;2.10;;;17.70;99.90;;;;;;5070735;28;20177;-69
2022/06/30 03:13:23;;;;;;;2.60;2.40;;;17.70;99.90;;;;;;5072017;28;20740;-70
2022/06/30 03:15:50;;;;;;;3.73;2.47;;;17.80;99.90;;;;;;5071653;28;20185;-70
2022/06/30 03:18:15;;;;;;;2.40;2.20;;;17.80;99.90;;;;;;5071763;28;20198;-71
2022/06/30 03:20:41;;;;;;;2.17;1.97;;;17.80;99.90;;;;;;5071887;28;20404;-70
2022/06/30 03:23:07;;;;;;;3.00;2.30;;;17.90;99.90;;;;;;5071901;28;20173;-71
2022/06/30 03:25:32;;;;;;;2.43;2.23;;;17.90;99.90;;;;;;5071634;28;20208;-70
2022/06/30 03:27:59;;;;;;;3.17;2.20;;;17.90;99.90;;;;;;5071753;28;20202;-70
2022/06/30 03:30:25;;;;;;;4.40;3.03;;;17.90;99.90;;;;;;5071776;28;20174;-70
2022/06/30 03:32:51;;;;;;;2.23;1.90;;;17.90;99.90;;;;;;5071785;28;20414;-70
2022/06/30 03:35:18;;;;;;;2.60;2.40;;;17.80;99.90;;;;;;5071460;28;20404;-70
2022/06/30 03:37:44;;;;;;;2.97;2.20;;;17.80;99.90;;;;;;5071569;28;20285;-71
2022/06/30 03:40:10;;;;;;;3.67;2.87;;;17.80;99.90;;;;;;5071607;28;20497;-71
2022/06/30 03:42:36;;;;;;;3.20;2.90;;;17.80;99.90;;;;;;5071957;28;20488;-72
2022/06/30 03:45:02;;;;;;;2.27;2.07;;;17.80;99.90;;;;;;5070874;28;20953;-70
2022/06/30 03:47:27;;;;;;;2.00;1.80;;;17.80;99.90;;;;;;5072261;28;20201;-72
2022/06/30 03:49:53;;;;;;;3.40;2.10;;;17.80;99.90;;;;;;5072181;28;20181;-73
2022/06/30 03:52:18;;;;;;;2.03;1.83;;;17.80;99.90;;;;;;5072233;28;20178;-70
2022/06/30 03:54:44;;;;;;;1.90;1.50;;;17.80;99.90;;;;;;5071307;28;20186;-72
2022/06/30 03:57:10;;;;;;;2.30;1.80;;;17.80;99.90;;;;;;5071328;28;20198;-72
2022/06/30 03:59:37;;;;;;;3.40;1.40;;;17.80;99.90;;;;;;5071522;28;20408;-68
2022/06/30 04:02:05;;;;;;;4.33;2.93;;;17.80;99.90;;;;;;5071438;28;20636;-69
2022/06/30 04:04:32;;;;;;;3.90;3.00;;;17.80;99.90;;;;;;5071355;28;20408;-70
2022/06/30 04:06:58;;;;;;;5.60;3.57;;;17.80;99.90;;;;;;5071452;28;20408;-68
2022/06/30 04:09:23;;;;;;;4.40;3.30;;;17.80;99.90;;;;;;5071432;28;21017;-68
2022/06/30 04:11:49;;;;;;;7.03;3.03;;;17.70;99.90;;;;;;5071321;28;20170;-69
2022/06/30 04:14:15;;;;;;;4.33;3.53;;;17.80;99.90;;;;;;5071115;28;20518;-69
2022/06/30 04:16:40;;;;;;;4.27;3.50;;;17.80;99.90;;;;;;5071234;28;20194;-68
2022/06/30 04:19:06;;;;;;;3.07;2.80;;;17.80;99.90;;;;;;5071795;28;20190;-72
2022/06/30 04:21:31;;;;;;;2.63;2.43;;;17.80;99.90;;;;;;5071949;28;20166;-72
2022/06/30 04:23:57;;;;;;;2.77;2.57;;;17.80;99.90;;;;;;5071827;28;20207;-71
2022/06/30 04:26:22;;;;;;;5.10;2.80;;;17.80;99.90;;;;;;5071386;28;20652;-72
2022/06/30 04:28:48;;;;;;;4.47;2.73;;;17.90;99.90;;;;;;5071248;28;20256;-70
2022/06/30 04:33:57;;;;;;;4.97;3.30;;;17.90;99.90;;;;;;5072215;28;20255;-68
2022/06/30 04:36:23;;;;;;;2.90;2.60;;;17.90;99.90;;;;;;5074458;28;20845;-71
2022/06/30 04:38:48;;;;;;;3.70;3.30;;;17.90;99.90;;;;;;5074664;28;20634;-68
2022/06/30 04:41:26;;;;;;;2.43;2.10;;;18.00;99.90;;;;;;5074748;28;20170;-70
2022/06/30 04:44:00;;;;;;;2.60;2.30;;;18.00;99.90;;;;;;5074744;28;20261;-70
2022/06/30 04:46:25;;;;;;;2.43;2.23;;;18.10;99.90;;;;;;5074433;28;20491;-70
2022/06/30 04:48:52;;;;;;;3.50;3.00;;;18.10;99.90;;;;;;5074637;28;20529;-69
2022/06/30 04:51:18;;;;;;;4.20;3.60;;;18.20;99.90;;;;;;5074591;28;20240;-70
2022/06/30 04:53:44;;;;;;;3.33;2.43;;;18.20;99.90;;;;;;5074400;28;20515;-70
2022/06/30 04:56:10;;;;;;;2.43;2.20;;;18.30;99.90;;;;;;5074070;28;20496;-70
2022/06/30 04:58:37;;;;;;;7.83;3.43;;;18.30;99.90;;;;;;5073257;28;20658;-70
2022/06/30 05:01:03;;;;;;;6.50;3.33;;;18.40;99.90;;;;;;5074497;28;20785;-68
2022/06/30 05:03:30;;;;;;;5.60;4.07;;;18.40;99.90;;;;;;5075580;28;20861;-72
2022/06/30 05:05:55;;;;;;;4.77;3.30;;;18.50;99.90;;;;;;5076015;28;20816;-73
2022/06/30 05:08:21;;;;;;;3.70;3.10;;;18.60;99.90;;;;;;5074275;28;20474;-72
2022/06/30 05:10:47;;;;;;;5.30;3.87;;;18.60;99.90;;;;;;5075570;28;20660;-72
2022/06/30 05:13:12;;;;;;;6.63;3.87;;;18.80;99.90;;;;;;5076398;28;20253;-71
2022/06/30 05:15:39;;;;;;;6.10;4.27;;;18.80;99.90;;;;;;5075744;28;20633;-70
2022/06/30 05:18:05;;;;;;;4.37;3.97;;;18.90;99.90;;;;;;5075730;28;20251;-72
2022/06/30 05:20:32;;;;;;;7.67;4.50;;;19.00;99.90;;;;;;5074695;28;20412;-71
2022/06/30 05:22:57;;;;;;;5.70;3.87;;;19.10;99.90;;;;;;5074438;28;20166;-68
2022/06/30 05:28:08;;;;;;;5.77;4.63;;;19.20;99.90;;;;;;5074117;28;20255;-68
2022/06/30 05:30:33;;;;;;;4.97;4.47;;;19.30;99.90;;;;;;5073815;28;20408;-69
2022/06/30 05:32:59;;;;;;;4.80;3.87;;;19.40;99.90;;;;;;5073854;28;20767;-69
2022/06/30 05:35:25;;;;;;;5.33;4.83;;;19.50;99.90;;;;;;5074525;28;20483;-71
2022/06/30 05:37:51;;;;;;;6.27;4.47;;;19.50;99.90;;;;;;5073765;28;20479;-70
2022/06/30 05:40:17;;;;;;;4.60;4.20;;;19.60;99.90;;;;;;5073496;28;20273;-70
2022/06/30 05:42:42;;;;;;;8.83;5.63;;;19.70;99.90;;;;;;5073623;28;20465;-70
2022/06/30 05:45:09;;;;;;;6.00;5.40;;;19.80;99.90;;;;;;5072368;28;20641;-70
2022/06/30 05:47:43;;;;;;;6.37;5.53;;;19.90;99.90;;;;;;5073322;28;20610;-70
2022/06/30 05:50:09;;;;;;;4.63;4.23;;;20.10;99.90;;;;;;5074986;28;20862;-73
2022/06/30 05:52:34;;;;;;;4.70;4.20;;;20.30;99.90;;;;;;5074103;28;20479;-70
2022/06/30 05:55:00;;;;;;;7.07;4.90;;;20.60;99.90;;;;;;5073594;28;20186;-72
2022/06/30 05:57:25;;;;;;;4.83;4.00;;;21.00;99.90;;;;;;5073360;28;20248;-71
2022/06/30 05:59:51;;;;;;;4.20;3.80;;;21.40;99.90;;;;;;5074976;28;20158;-73
2022/06/30 06:02:16;;;;;;;4.63;3.33;;;22.00;99.90;;;;;;5074579;28;20194;-70
2022/06/30 06:04:42;;;;;;;4.17;3.80;;;22.50;99.90;;;;;;5072790;28;20208;-69
2022/06/30 06:07:07;;;;;;;4.27;3.87;;;23.10;99.90;;;;;;5073144;28;20180;-70
2022/06/30 06:09:33;;;;;;;8.70;4.50;;;23.70;99.90;;;;;;5074504;28;20205;-73
2022/06/30 06:11:59;;;;;;;4.33;4.00;;;24.30;99.90;;;;;;5075117;28;20162;-73
2022/06/30 06:14:24;;;;;;;4.20;3.57;;;24.70;99.90;;;;;;5073528;28;20193;-73
2022/06/30 06:16:50;;;;;;;3.00;2.67;;;25.00;99.90;;;;;;5072120;28;20568;-72
2022/06/30 06:19:15;;;;;;;3.67;2.80;;;25.60;99.90;;;;;;5073099;28;20232;-70
2022/06/30 06:21:41;;;;;;;3.37;3.07;;;26.40;99.90;;;;;;5072726;28;20158;-71
2022/06/30 06:24:07;;;;;;;3.23;2.93;;;27.20;99.90;;;;;;5071722;28;20180;-70
2022/06/30 06:26:32;;;;;;;3.20;2.87;;;28.00;99.90;;;;;;5071247;28;20262;-70
2022/06/30 06:29:06;;;;;;;3.93;3.63;;;28.90;99.90;;;;;;5072582;28;20687;-70
2022/06/30 06:31:34;;;;;;;3.50;2.97;;;29.70;99.90;;;;;;5071579;28;20177;-70
2022/06/30 06:34:00;;;;;;;3.90;3.60;;;30.50;99.90;;;;;;5071333;28;20408;-71
2022/06/30 06:36:26;;;;;;;3.70;2.30;;;31.40;99.90;;;;;;5072077;28;20401;-70
2022/06/30 06:38:52;;;;;;;3.20;2.80;;;32.10;99.90;;;;;;5072509;28;20507;-70
2022/06/30 06:41:20;;;;;;;4.33;3.30;;;32.90;99.90;;;;;;5072385;28;20487;-71
2022/06/30 06:43:47;;;;;;;3.67;3.37;;;33.60;99.90;;;;;;5072482;28;20166;-71
2022/06/30 06:46:13;;;;;;;4.00;3.63;;;34.30;99.90;;;;;;5072048;28;20412;-71
2022/06/30 06:48:38;;;;;;;2.80;2.60;;;35.00;99.90;;;;;;5072213;28;20423;-72
2022/06/30 06:51:04;;;;;;;2.80;2.60;;;35.80;99.90;;;;;;5072279;28;20197;-71
2022/06/30 06:53:30;;;;;;;3.77;2.80;;;36.50;99.40;;;;;;5072235;28;20253;-71
2022/06/30 06:55:55;;;;;;;4.97;2.70;;;37.20;94.90;;;;;;5071994;28;20173;-71
2022/06/30 06:58:21;;;;;;;2.50;2.30;;;37.80;91.50;;;;;;5071871;28;20208;-72
2022/06/30 07:00:46;;;;;;;4.90;3.80;;;38.50;87.70;;;;;;5072259;28;20192;-71
2022/06/30 07:03:12;;;;;;;3.60;3.30;;;39.10;80.00;;;;;;5072143;28;20167;-71
2022/06/30 07:05:38;;;;;;;3.67;3.37;;;39.60;72.30;;;;;;5071294;28;20166;-71
2022/06/30 07:08:04;;;;;;;2.90;2.70;;;40.10;66.80;;;;;;5070818;28;20683;-71
2022/06/30 07:10:30;;;;;;;2.40;2.20;;;40.70;62.40;;;;;;5072099;28;20396;-71
2022/06/30 07:12:55;;;;;;;2.40;2.20;;;41.20;58.80;;;;;;5072027;28;20170;-71
2022/06/30 07:15:24;;;;;;;2.13;2.03;;;41.80;57.20;;;;;;5071784;28;20170;-71
2022/06/30 07:17:50;;;;;;;2.60;2.40;;;42.40;55.90;;;;;;5071887;28;20340;-72
2022/06/30 07:20:16;;;;;;;2.33;2.23;;;43.20;54.60;;;;;;5071978;28;20431;-70
2022/06/30 07:22:41;;;;;;;1.93;1.83;;;43.90;52.90;;;;;;5070641;28;20747;-71
2022/06/30 07:25:07;;;;;;;3.10;2.80;;;44.60;51.10;;;;;;5071703;28;20243;-71
2022/06/30 07:27:33;;;;;;;2.30;2.20;;;45.30;49.60;;;;;;5071821;28;20197;-71
2022/06/30 07:29:59;;;;;;;2.03;1.93;;;46.10;48.30;;;;;;5070676;28;20889;-71
2022/06/30 07:32:25;;;;;;;2.30;2.20;;;46.80;46.80;;;;;;5071742;28;20544;-71
2022/06/30 07:34:51;;;;;;;2.03;1.93;;;47.60;45.40;;;;;;5071540;28;20700;-72
2022/06/30 07:37:16;;;;;;;2.77;2.50;;;48.40;44.00;;;;;;5071418;28;20513;-72
2022/06/30 07:39:42;;;;;;;3.00;2.50;;;49.10;42.40;;;;;;5071634;28;20162;-69
2022/06/30 07:42:07;;;;;;;2.40;2.20;;;49.70;40.50;;;;;;5071777;28;20200;-69
2022/06/30 07:44:33;;;;;;;2.50;2.30;;;50.40;39.10;;;;;;5071586;28;20154;-70
2022/06/30 07:46:59;;;;;;;2.87;2.67;;;51.10;38.00;;;;;;5071600;28;20241;-70
2022/06/30 07:49:24;;;;;;;2.27;2.17;;;51.80;36.80;;;;;;5071552;28;20666;-69
2022/06/30 07:51:50;;;;;;;2.37;1.93;;;52.40;35.80;;;;;;5071630;28;20170;-70
2022/06/30 07:54:16;;;;;;;2.30;2.10;;;53.00;34.80;;;;;;5071107;28;20193;-70
2022/06/30 07:56:41;;;;;;;2.67;2.47;;;53.60;33.70;;;;;;5071517;28;20206;-70
2022/06/30 07:59:07;;;;;;;2.23;2.13;;;54.20;32.40;;;;;;5071522;28;20178;-71
2022/06/30 08:01:33;;;;;;;2.30;2.20;;;54.90;31.90;;;;;;5071523;28;20163;-71
2022/06/30 08:03:58;;;;;;;1.90;1.80;;;55.50;31.00;;;;;;5071540;28;20162;-70
2022/06/30 08:06:25;;;;;;;2.40;2.23;;;56.10;30.40;;;;;;5071273;28;20181;-70
2022/06/30 08:08:51;;;;;;;2.43;2.33;;;56.60;29.70;;;;;;5072407;28;20193;-70
2022/06/30 08:11:17;;;;;;;2.20;2.10;;;57.10;29.20;;;;;;5075582;28;20400;-71
2022/06/30 08:13:43;;;;;;;2.37;2.27;;;57.70;28.60;;;;;;5075400;28;20442;-71
2022/06/30 08:16:11;;;;;;;2.50;2.40;;;58.10;27.90;;;;;;5075155;28;20481;-71
2022/06/30 08:18:37;;;;;;;2.60;2.50;;;58.60;27.60;;;;;;5075286;28;20194;-71
2022/06/30 08:21:03;;;;;;;2.40;2.30;;;59.00;27.10;;;;;;5075209;28;20839;-71
2022/06/30 08:23:28;;;;;;;2.70;2.60;;;59.60;26.70;;;;;;5075353;28;20610;-71
2022/06/30 08:25:54;;;;;;;3.17;2.97;;;59.90;26.70;;;;;;5075024;28;20400;-71
2022/06/30 08:28:20;;;;;;;3.50;3.30;;;60.20;26.00;;;;;;5074994;28;20181;-71
2022/06/30 08:30:48;;;;;;;3.50;3.20;;;60.50;25.80;;;;;;5074842;28;20192;-71
2022/06/30 08:33:14;;;;;;;3.10;2.90;;;60.70;25.70;;;;;;5074986;28;20158;-72
2022/06/30 08:35:39;;;;;;;3.47;3.37;;;60.90;25.50;;;;;;5074619;28;20400;-71
2022/06/30 08:38:05;;;;;;;3.03;2.93;;;60.90;25.20;;;;;;5074790;28;20250;-70
2022/06/30 08:43:18;;;;;;;2.87;2.77;;;61.00;25.00;;;;;;5074855;28;20227;-70
2022/06/30 08:45:45;;;;;;;4.10;3.90;;;61.50;24.90;;;;;;5074538;28;20871;-70
2022/06/30 08:48:12;;;;;;;3.10;3.00;;;61.90;24.60;;;;;;5073239;28;20826;-70
2022/06/30 08:50:42;;;;;;;3.33;3.23;;;62.40;24.40;;;;;;5074716;28;20404;-71
2022/06/30 08:53:09;;;;;;;4.37;4.17;;;62.90;24.30;;;;;;5074530;28;20396;-71
2022/06/30 08:55:35;;;;;;;4.23;4.03;;;63.40;24.10;;;;;;5074215;28;20404;-71
2022/06/30 08:58:06;;;;;;;4.60;4.40;;;63.80;23.90;;;;;;5074508;28;20431;-71
2022/06/30 09:00:34;;;;;;;4.33;4.13;;;64.20;23.60;;;;;;5074537;28;20411;-71
2022/06/30 09:03:00;;;;;;;5.28;5.07;;;64.40;23.50;;;;;;5074661;28;20404;-71
2022/06/30 09:05:26;;;;;;;4.90;4.70;;;64.70;23.20;;;;;;5074153;28;20261;-70
2022/06/30 09:07:51;;;;;;;4.40;4.20;;;64.80;23.10;;;;;;5074125;28;20589;-71
2022/06/30 09:10:17;;;;;;;4.32;4.13;;;64.80;23.00;;;;;;5072971;28;20697;-72
2022/06/30 09:12:58;;;;;;;5.03;4.82;;;64.70;23.00;;;;;;5074262;28;20169;-71
2022/06/30 09:15:25;;;;;;;4.43;4.22;;;64.60;23.00;;;;;;5073972;28;20170;-71
2022/06/30 09:17:51;;;;;;;4.20;4.10;;;64.40;23.00;;;;;;5072983;28;20190;-70
2022/06/30 09:20:17;;;;;;;4.23;4.03;;;64.20;23.10;;;;;;5073970;28;20825;-72
2022/06/30 09:22:42;;;;;;;4.43;4.23;;;63.80;23.00;;;;;;5074010;28;20177;-70
2022/06/30 09:25:11;;;;;;;4.30;4.10;;;63.20;23.00;;;;;;5073979;28;20177;-71
2022/06/30 09:27:38;;;;;;;3.37;3.27;;;62.70;23.30;;;;;;5073902;28;20744;-70
2022/06/30 09:30:10;;;;;;;3.90;3.60;;;62.30;23.30;;;;;;5074151;28;20854;-70
2022/06/30 09:33:02;;;;;;;4.10;3.87;;;62.10;23.30;;;;;;5073828;28;20407;-71
2022/06/30 09:35:29;;;;;;;3.53;3.33;;;62.00;23.30;;;;;;5073677;28;20388;-70
2022/06/30 09:38:09;;;;;;;3.60;3.50;;;62.00;23.20;;;;;;5072513;28;20768;-70
2022/06/30 09:40:37;;;;;;;4.03;3.70;;;61.70;23.10;;;;;;5073865;28;20910;-70
2022/06/30 09:43:04;;;;;;;3.50;3.20;;;61.40;23.30;;;;;;5073730;28;20404;-71
2022/06/30 09:45:34;;;;;;;3.53;3.33;;;60.90;23.40;;;;;;5073376;28;20422;-71
2022/06/30 09:48:00;;;;;;;3.70;3.40;;;60.20;23.40;;;;;;5073480;28;20813;-70
2022/06/30 09:50:25;;;;;;;3.13;2.93;;;59.70;23.50;;;;;;5073631;28;20407;-70
2022/06/30 09:53:04;;;;;;;3.40;3.20;;;59.20;23.80;;;;;;5073558;28;20686;-70
2022/06/30 09:55:47;;;;;;;3.13;2.93;;;58.70;23.90;;;;;;5073282;28;20173;-70
2022/06/30 09:58:35;;;;;;;3.00;2.67;;;58.20;24.20;;;;;;5073283;28;20420;-70
2022/06/30 10:01:00;;;;;;;2.63;2.53;;;57.80;24.30;;;;;;5073364;28;20913;-71
2022/06/30 10:03:26;;;;;;;2.70;2.60;;;57.60;24.20;;;;;;5073250;28;20404;-70
2022/06/30 10:06:08;;;;;;;2.50;2.40;;;57.50;24.40;;;;;;5072979;28;20248;-70
2022/06/30 10:08:34;;;;;;;2.53;2.43;;;57.60;24.50;;;;;;5073013;28;20444;-70
2022/06/30 10:11:00;;;;;;;2.57;2.40;;;57.60;24.40;;;;;;5073168;28;20392;-70
2022/06/30 10:13:26;;;;;;;3.20;3.00;;;57.60;24.50;;;;;;5073099;28;20491;-70
2022/06/30 10:15:54;;;;;;;2.70;2.50;;;57.50;24.50;;;;;;5072762;28;20220;-70
2022/06/30 10:18:27;;;;;;;3.17;2.93;;;57.20;24.50;;;;;;5072902;28;20910;-70
2022/06/30 10:20:54;;;;;;;2.50;2.40;;;56.80;24.60;;;;;;5072999;28;20439;-71
2022/06/30 10:23:22;;;;;;;2.43;2.30;;;56.50;24.80;;;;;;5073008;28;20400;-70
2022/06/30 10:25:52;;;;;;;2.33;2.23;;;56.20;24.90;;;;;;5072647;28;20409;-70
2022/06/30 10:28:22;;;;;;;2.83;2.63;;;56.00;24.90;;;;;;5072607;28;20456;-70
2022/06/30 10:31:23;;;;;;;2.33;2.20;;;55.70;25.00;;;;;;5072731;28;20412;-70
2022/06/30 10:34:13;;;;;;;2.10;2.00;;;55.60;25.10;;;;;;5055278;28;20499;-70
2022/06/30 10:36:46;;;;;;;2.60;2.50;;;55.50;25.20;;;;;;5071941;28;20415;-69
2022/06/30 10:39:24;;;;;;;2.63;2.43;;;55.50;25.40;;;;;;5072654;28;20915;-70
2022/06/30 10:41:50;;;;;;;2.50;2.30;;;55.70;25.50;;;;;;5072542;28;20438;-70
2022/06/30 10:44:27;;;;;;;2.40;2.30;;;56.10;25.40;;;;;;5072220;28;20408;-71
2022/06/30 10:46:52;;;;;;;2.47;2.30;;;56.40;25.30;;;;;;5072316;28;20185;-70
2022/06/30 10:49:20;;;;;;;2.63;2.53;;;56.80;25.20;;;;;;5072306;28;20417;-70
2022/06/30 10:51:46;;;;;;;2.50;2.30;;;56.90;25.20;;;;;;5072364;28;20755;-71
2022/06/30 10:54:31;;;;;;;3.20;2.60;;;56.70;24.90;;;;;;5072102;28;20515;-70
2022/06/30 10:56:59;;;;;;;2.57;2.37;;;56.20;25.00;;;;;;5072335;28;20162;-69
2022/06/30 10:59:32;;;;;;;2.30;2.20;;;55.70;25.00;;;;;;5072142;28;20453;-69
2022/06/30 11:02:15;;;;;;;2.50;2.30;;;55.10;25.10;;;;;;5072175;28;20410;-69
2022/06/30 11:04:49;;;;;;;2.00;1.90;;;54.50;25.40;;;;;;5071978;28;20410;-69
2022/06/30 11:07:20;;;;;;;2.50;2.30;;;54.20;25.60;;;;;;5070673;28;20434;-69
2022/06/30 11:09:48;;;;;;;2.13;2.03;;;53.70;25.80;;;;;;5072255;28;20368;-69
2022/06/30 11:12:19;;;;;;;2.40;2.30;;;53.30;25.90;;;;;;5072108;28;20392;-69
2022/06/30 11:14:56;;;;;;;2.63;2.47;;;52.90;26.00;;;;;;5071797;28;20910;-70
2022/06/30 11:17:23;;;;;;;2.13;2.03;;;52.80;26.20;;;;;;5071953;28;20528;-69
2022/06/30 11:20:03;;;;;;;2.20;2.10;;;52.50;26.20;;;;;;5072060;28;20458;-69
2022/06/30 11:22:30;;;;;;;2.30;2.10;;;52.40;26.50;;;;;;5072016;28;20396;-69
2022/06/30 11:25:03;;;;;;;1.90;1.80;;;52.20;26.40;;;;;;5071658;28;20379;-70
2022/06/30 11:27:32;;;;;;;2.10;2.00;;;52.20;26.40;;;;;;5071783;28;20526;-69
2022/06/30 11:30:03;;;;;;;2.30;2.20;;;52.30;26.40;;;;;;5071846;28;20428;-69
2022/06/30 11:32:29;;;;;;;2.40;2.20;;;52.70;26.60;;;;;;5071820;28;20363;-70
2022/06/30 11:34:56;;;;;;;2.30;2.20;;;53.30;26.50;;;;;;5071610;28;20383;-69
2022/06/30 11:37:23;;;;;;;2.23;2.13;;;53.80;26.50;;;;;;5071930;28;20253;-69
2022/06/30 11:39:58;;;;;;;2.37;2.27;;;54.30;26.40;;;;;;5071860;28;20400;-70
2022/06/30 11:42:24;;;;;;;2.40;2.30;;;54.60;26.00;;;;;;5071755;28;20404;-69
2022/06/30 11:44:49;;;;;;;2.37;2.17;;;55.10;26.00;;;;;;5074161;28;20405;-70
2022/06/30 11:47:16;;;;;;;2.50;2.30;;;55.70;26.00;;;;;;5074460;28;20694;-70
2022/06/30 11:49:57;;;;;;;2.40;2.30;;;56.10;25.80;;;;;;5075971;28;20524;-70
2022/06/30 11:52:24;;;;;;;2.20;2.10;;;56.40;25.80;;;;;;5075435;28;20400;-70
2022/06/30 11:54:55;;;;;;;2.60;2.47;;;56.90;25.70;;;;;;5075196;28;20435;-70
2022/06/30 11:57:31;;;;;;;2.40;2.30;;;57.40;25.50;;;;;;5075598;28;20400;-70
2022/06/30 12:00:00;;;;;;;2.50;2.40;;;58.00;25.30;;;;;;5075621;28;20940;-69
2022/06/30 12:02:26;;;;;;;2.77;2.60;;;58.40;25.00;;;;;;5074268;28;20498;-70
2022/06/30 12:04:54;;;;;;;2.80;2.70;;;58.80;24.80;;;;;;5074767;28;20903;-70
2022/06/30 12:07:21;;;;;;;2.90;2.80;;;59.30;24.60;;;;;;5075375;28;20550;-70
2022/06/30 12:09:47;;;;;;;2.90;2.80;;;59.60;24.50;;;;;;5075653;28;20933;-70
2022/06/30 12:12:17;;;;;;;3.20;3.10;;;59.80;24.20;;;;;;5075469;28;20495;-70
2022/06/30 12:14:44;;;;;;;2.80;2.70;;;59.90;24.00;;;;;;5074982;28;20570;-70
2022/06/30 12:17:11;;;;;;;3.00;2.90;;;59.90;23.90;;;;;;5075282;28;20490;-70
2022/06/30 12:19:38;;;;;;;3.00;2.80;;;59.90;23.80;;;;;;5075370;28;20778;-70
2022/06/30 12:22:07;;;;;;;2.77;2.60;;;60.00;23.90;;;;;;5075149;28;20468;-70
2022/06/30 12:24:38;;;;;;;2.77;2.67;;;60.00;23.90;;;;;;5074980;28;20404;-70
2022/06/30 12:27:04;;;;;;;3.00;2.90;;;60.00;23.90;;;;;;5075178;28;20987;-70
2022/06/30 12:29:31;;;;;;;3.23;2.83;;;59.90;23.90;;;;;;5074895;28;20427;-69
2022/06/30 12:32:08;;;;;;;3.27;3.07;;;59.90;23.90;;;;;;5075042;28;20490;-69
2022/06/30 12:34:50;;;;;;;3.20;3.10;;;59.70;23.90;;;;;;5073386;28;20484;-68
2022/06/30 12:37:16;;;;;;;2.80;2.70;;;59.40;24.00;;;;;;5074881;28;20444;-69
2022/06/30 12:39:45;;;;;;;3.33;3.13;;;59.10;24.00;;;;;;5074876;28;20418;-69
2022/06/30 12:42:11;;;;;;;2.40;2.30;;;58.70;24.10;;;;;;5074914;28;20485;-71
2022/06/30 12:44:38;;;;;;;3.20;3.00;;;58.60;24.30;;;;;;5074593;28;20444;-68
2022/06/30 12:47:11;;;;;;;2.70;2.60;;;58.30;24.30;;;;;;5074573;28;20190;-68
2022/06/30 12:49:38;;;;;;;2.90;2.70;;;57.80;24.40;;;;;;5074674;28;20457;-69
2022/06/30 12:52:20;;;;;;;2.50;2.40;;;57.50;24.50;;;;;;5074671;28;20396;-69
2022/06/30 12:54:57;;;;;;;2.40;2.30;;;57.20;24.60;;;;;;5073673;28;20773;-70
2022/06/30 12:57:26;;;;;;;2.40;2.30;;;57.20;24.70;;;;;;5074765;28;20396;-72
2022/06/30 12:59:54;;;;;;;2.77;2.57;;;57.10;24.80;;;;;;5074737;28;20401;-70
2022/06/30 13:02:21;;;;;;;2.23;2.13;;;56.90;24.80;;;;;;5074620;28;20413;-70